createdAt,value
2023-01-05T00:01:54.195Z,100490.53
2023-01-05T00:04:22.360Z,100485.56
2023-01-05T00:06:50.002Z,100487.13
2023-01-05T00:09:19.351Z,100485.28
2023-01-05T00:12:05.821Z,100479.00
2023-01-05T00:14:53.451Z,100484.50
2023-01-05T00:17:42.158Z,100483.22
2023-01-05T00:20:47.162Z,100477.97
2023-01-05T00:23:14.747Z,100484.22
2023-01-05T00:25:42.422Z,100481.09
2023-01-05T00:28:10.041Z,100480.59
2023-01-05T00:30:45.949Z,100473.84
2023-01-05T00:33:17.486Z,100470.94
2023-01-05T00:35:45.330Z,100473.84
2023-01-05T00:38:13.085Z,100474.31
2023-01-05T00:40:40.721Z,100474.31
2023-01-05T00:43:08.204Z,100464.88
2023-01-05T00:45:35.729Z,100458.34
2023-01-05T00:48:03.294Z,100461.78
2023-01-05T00:50:30.859Z,100469.63
2023-01-05T00:52:58.344Z,100458.31
2023-01-05T00:55:25.932Z,100453.38
2023-01-05T00:57:53.579Z,100453.91
2023-01-05T01:00:21.226Z,100450.50
2023-01-05T01:02:55.053Z,100453.44
2023-01-05T01:05:23.337Z,100454.97
2023-01-05T01:07:50.993Z,100448.16
2023-01-05T01:10:18.731Z,100448.16
2023-01-05T01:12:46.281Z,100450.97
2023-01-05T01:15:13.978Z,100444.97
2023-01-05T01:17:42.904Z,100444.28
2023-01-05T01:20:10.804Z,100442.31
2023-01-05T01:22:38.441Z,100437.41
2023-01-05T01:25:07.631Z,100432.94
2023-01-05T01:27:35.424Z,100428.97
2023-01-05T01:30:03.005Z,100429.66
2023-01-05T01:32:30.548Z,100426.88
2023-01-05T01:34:58.039Z,100421.63
2023-01-05T01:37:25.668Z,100416.16
2023-01-05T01:39:56.074Z,100415.66
2023-01-05T01:42:24.312Z,100408.09
2023-01-05T01:45:18.247Z,100407.59
2023-01-05T01:47:59.769Z,100399.97
2023-01-05T01:50:49.520Z,100406.56
2023-01-05T01:53:52.151Z,100393.25
2023-01-05T01:56:22.468Z,100396.16
2023-01-05T01:58:50.827Z,100394.34
2023-01-05T02:01:19.383Z,100385.50
2023-01-05T02:03:47.639Z,100389.97
2023-01-05T02:06:15.640Z,100378.19
2023-01-05T02:08:43.846Z,100381.84
2023-01-05T02:11:18.276Z,100375.38
2023-01-05T02:14:18.512Z,100379.03
2023-01-05T02:17:30.706Z,100373.56
2023-01-05T02:20:28.527Z,100370.44
2023-01-05T02:23:15.807Z,100373.88
2023-01-05T02:26:02.118Z,100364.47
2023-01-05T02:29:12.434Z,100369.47
2023-01-05T02:32:04.278Z,100367.34
2023-01-05T02:34:42.332Z,100365.22
2023-01-05T02:37:21.841Z,100368.16
2023-01-05T02:39:59.262Z,100360.31
2023-01-05T02:42:30.912Z,100356.91
2023-01-05T02:45:01.135Z,100352.50
2023-01-05T02:47:28.661Z,100355.91
2023-01-05T02:50:09.828Z,100347.00
2023-01-05T02:52:46.923Z,100353.25
2023-01-05T02:55:23.587Z,100349.38
2023-01-05T02:58:02.529Z,100353.22
2023-01-05T03:00:47.167Z,100342.19
2023-01-05T03:03:30.071Z,100342.63
2023-01-05T03:06:25.668Z,100335.13
2023-01-05T03:09:00.421Z,100328.41
2023-01-05T03:12:02.001Z,100328.41
2023-01-05T03:14:43.498Z,100323.44
2023-01-05T03:17:17.921Z,100319.78
2023-01-05T03:19:50.698Z,100319.00
2023-01-05T03:22:49.931Z,100313.53
2023-01-05T03:25:40.080Z,100323.16
2023-01-05T03:28:35.865Z,100321.84
2023-01-05T03:31:54.569Z,100311.66
2023-01-05T03:35:02.207Z,100315.34
2023-01-05T03:37:44.573Z,100313.00
2023-01-05T03:40:22.686Z,100315.31
2023-01-05T03:42:53.224Z,100315.03
2023-01-05T03:45:27.123Z,100311.88
2023-01-05T03:47:56.084Z,100317.13
2023-01-05T03:50:26.895Z,100320.91
2023-01-05T03:52:55.020Z,100311.53
2023-01-05T03:55:23.530Z,100316.34
2023-01-05T03:57:53.772Z,100311.72
2023-01-05T04:00:22.816Z,100310.75
2023-01-05T04:02:59.389Z,100306.09
2023-01-05T04:05:27.131Z,100307.16
2023-01-05T04:07:55.002Z,100313.13
2023-01-05T04:10:22.602Z,100307.16
2023-01-05T04:12:50.099Z,100301.44
2023-01-05T04:15:19.147Z,100296.72
2023-01-05T04:17:47.042Z,100285.75
2023-01-05T04:20:14.680Z,100289.13
2023-01-05T04:22:42.887Z,100288.69
2023-01-05T04:25:10.816Z,100294.97
2023-01-05T04:27:39.967Z,100292.38
2023-01-05T04:30:08.702Z,100286.66
2023-01-05T04:32:36.359Z,100291.34
2023-01-05T04:35:11.049Z,100282.75
2023-01-05T04:37:40.637Z,100283.03
2023-01-05T04:40:09.862Z,100285.13
2023-01-05T04:42:46.361Z,100285.63
2023-01-05T04:45:14.339Z,100286.91
2023-01-05T04:47:41.812Z,100283.69
2023-01-05T04:50:12.063Z,100289.19
2023-01-05T04:52:40.510Z,100285.03
2023-01-05T04:55:09.026Z,100281.09
2023-01-05T04:57:37.191Z,100274.47
2023-01-05T05:00:06.056Z,100267.97
2023-01-05T05:02:34.993Z,100258.84
2023-01-05T05:05:02.644Z,100264.41
2023-01-05T05:07:30.380Z,100250.03
2023-01-05T05:09:59.409Z,100255.00
2023-01-05T05:12:27.236Z,100246.94
2023-01-05T05:14:54.836Z,100256.59
2023-01-05T05:17:22.332Z,100266.81
2023-01-05T05:19:50.526Z,100262.38
2023-01-05T05:22:21.083Z,100271.78
2023-01-05T05:24:48.686Z,100266.59
2023-01-05T05:27:16.142Z,100260.66
2023-01-05T05:29:43.703Z,100251.28
2023-01-05T05:32:11.446Z,100248.66
2023-01-05T05:34:38.940Z,100243.19
2023-01-05T05:37:06.837Z,100246.81
2023-01-05T05:39:34.316Z,100262.75
2023-01-05T05:42:01.834Z,100268.03
2023-01-05T05:44:29.290Z,100267.75
2023-01-05T05:46:58.084Z,100257.88
2023-01-05T05:49:25.571Z,100260.72
2023-01-05T05:51:53.116Z,100249.03
2023-01-05T05:54:20.812Z,100248.00
2023-01-05T05:56:48.361Z,100249.28
2023-01-05T05:59:15.980Z,100251.38
2023-01-05T06:01:43.731Z,100250.88
2023-01-05T06:04:12.190Z,100263.63
2023-01-05T06:06:39.979Z,100262.06
2023-01-05T06:09:07.545Z,100258.94
2023-01-05T06:11:35.403Z,100250.09
2023-01-05T06:14:03.229Z,100247.22
2023-01-05T06:16:30.843Z,100245.91
2023-01-05T06:18:58.667Z,100259.97
2023-01-05T06:21:26.150Z,100255.81
2023-01-05T06:23:53.609Z,100252.69
2023-01-05T06:26:21.155Z,100261.00
2023-01-05T06:28:48.633Z,100259.19
2023-01-05T06:31:16.149Z,100255.50
2023-01-05T06:33:43.684Z,100256.28
2023-01-05T06:36:11.355Z,100250.06
2023-01-05T06:38:38.849Z,100239.34
2023-01-05T06:41:06.539Z,100247.41
2023-01-05T06:43:34.072Z,100243.78
2023-01-05T06:46:01.726Z,100247.97
2023-01-05T06:48:29.347Z,100239.06
2023-01-05T06:50:56.876Z,100236.16
2023-01-05T06:53:24.317Z,100241.09
2023-01-05T06:55:51.759Z,100231.97
2023-01-05T06:58:19.282Z,100239.25
2023-01-05T07:00:46.832Z,100232.41
2023-01-05T07:03:14.663Z,100229.22
2023-01-05T07:05:42.860Z,100233.09
2023-01-05T07:08:10.326Z,100235.34
2023-01-05T07:10:37.878Z,100234.56
2023-01-05T07:13:05.382Z,100223.78
2023-01-05T07:15:32.937Z,100216.34
2023-01-05T07:18:00.413Z,100214.47
2023-01-05T07:20:28.091Z,100216.91
2023-01-05T07:22:55.727Z,100219.41
2023-01-05T07:25:23.446Z,100214.03
2023-01-05T07:27:53.590Z,100204.00
2023-01-05T07:30:21.003Z,100198.63
2023-01-05T07:32:48.473Z,100210.41
2023-01-05T07:35:16.198Z,100199.78
2023-01-05T07:37:44.507Z,100201.75
2023-01-05T07:40:12.669Z,100200.78
2023-01-05T07:42:40.298Z,100195.66
2023-01-05T07:45:10.469Z,100202.88
2023-01-05T07:47:40.358Z,100194.03
2023-01-05T07:50:08.616Z,100194.09
2023-01-05T07:52:36.124Z,100197.16
2023-01-05T07:55:04.624Z,100199.75
2023-01-05T07:57:32.157Z,100194.53
2023-01-05T08:00:00.145Z,100188.16
2023-01-05T08:02:32.368Z,100189.97
2023-01-05T08:05:03.519Z,100189.22
2023-01-05T08:07:30.995Z,100187.19
2023-01-05T08:10:18.083Z,100189.72
2023-01-05T08:13:04.384Z,100194.69
2023-01-05T08:15:31.948Z,100177.47
2023-01-05T08:17:59.444Z,100175.31
2023-01-05T08:20:26.978Z,100174.81
2023-01-05T08:22:55.121Z,100169.66
2023-01-05T08:25:22.849Z,100162.91
2023-01-05T08:27:51.504Z,100162.88
2023-01-05T08:30:19.033Z,100158.06
2023-01-05T08:32:47.235Z,100144.34
2023-01-05T08:35:14.761Z,100135.16
2023-01-05T08:37:46.119Z,100126.97
2023-01-05T08:40:13.773Z,100113.84
2023-01-05T08:42:41.269Z,100122.34
2023-01-05T08:45:10.270Z,100108.75
2023-01-05T08:47:37.753Z,100105.81
2023-01-05T08:50:06.324Z,100110.91
2023-01-05T08:52:33.875Z,100106.00
2023-01-05T08:55:02.634Z,100101.19
2023-01-05T08:57:31.214Z,100099.50
2023-01-05T08:59:58.660Z,100095.13
2023-01-05T09:02:26.822Z,100090.28
2023-01-05T09:04:54.587Z,100090.69
2023-01-05T09:07:22.495Z,100080.63
2023-01-05T09:09:49.974Z,100082.41
2023-01-05T09:12:17.442Z,100079.56
2023-01-05T09:14:45.004Z,100071.88
2023-01-05T09:17:12.545Z,100076.97
2023-01-05T09:19:40.123Z,100075.06
2023-01-05T09:22:07.585Z,100061.97
2023-01-05T09:24:35.096Z,100062.88
2023-01-05T09:27:03.904Z,100061.34
2023-01-05T09:29:31.542Z,100052.97
2023-01-05T09:31:59.668Z,100050.72
2023-01-05T09:34:27.334Z,100052.19
2023-01-05T09:36:54.806Z,100045.97
2023-01-05T09:39:22.247Z,100029.31
2023-01-05T09:41:58.928Z,100022.09
2023-01-05T09:44:29.678Z,100022.63
2023-01-05T09:47:31.067Z,100009.50
2023-01-05T09:50:00.657Z,100001.19
2023-01-05T09:52:31.523Z,99999.59
2023-01-05T09:55:18.995Z,99982.69
2023-01-05T09:58:07.590Z,99970.66
2023-01-05T10:00:45.117Z,99966.88
2023-01-05T10:03:53.202Z,99959.44
2023-01-05T10:06:16.919Z,99953.66
2023-01-05T10:08:49.910Z,99940.28
2023-01-05T10:11:58.454Z,99932.78
2023-01-05T10:14:40.673Z,99925.91
2023-01-05T10:20:38.460Z,99909.69
2023-01-05T10:23:26.959Z,99905.63
2023-01-05T10:26:50.986Z,99903.09
2023-01-05T10:29:47.468Z,99904.44
2023-01-05T10:32:32.329Z,99903.75
2023-01-05T10:35:59.606Z,99901.56
2023-01-05T10:38:58.923Z,99894.94
2023-01-05T10:41:40.151Z,99885.81
2023-01-05T10:44:41.669Z,99869.69
2023-01-05T10:47:11.228Z,99869.84
2023-01-05T10:49:42.539Z,99859.78
2023-01-05T10:52:16.355Z,99864.16
2023-01-05T10:54:56.453Z,99850.00
2023-01-05T10:57:34.612Z,99843.03
2023-01-05T11:00:08.288Z,99841.66
2023-01-05T11:02:40.318Z,99834.72
2023-01-05T11:05:10.744Z,99833.16
2023-01-05T11:07:51.523Z,99824.66
2023-01-05T11:10:25.029Z,99824.72
2023-01-05T11:13:33.492Z,99814.66
2023-01-05T11:16:13.348Z,99812.91
2023-01-05T11:19:00.496Z,99811.72
2023-01-05T11:21:43.535Z,99811.03
2023-01-05T11:24:29.640Z,99800.59
2023-01-05T11:27:03.757Z,99796.38
2023-01-05T11:29:32.080Z,99788.28
2023-01-05T11:32:06.405Z,99778.59
2023-01-05T11:34:42.182Z,99778.25
2023-01-05T11:37:12.485Z,99773.13
2023-01-05T11:39:49.672Z,99765.63
2023-01-05T11:42:27.916Z,99772.97
2023-01-05T11:45:02.484Z,99770.25
2023-01-05T11:47:57.998Z,99766.34
2023-01-05T11:50:32.125Z,99761.47
2023-01-05T11:53:02.447Z,99764.13
2023-01-05T11:55:38.406Z,99759.88
2023-01-05T11:58:20.801Z,99753.44
2023-01-05T12:01:11.383Z,99743.91
2023-01-05T12:04:04.758Z,99742.78
2023-01-05T12:06:39.095Z,99736.03
2023-01-05T12:09:37.815Z,99734.72
2023-01-05T12:12:47.634Z,99729.78
2023-01-05T12:15:51.588Z,99738.56
2023-01-05T12:19:14.981Z,99729.63
2023-01-05T12:22:28.339Z,99724.63
2023-01-05T12:25:15.032Z,99730.13
2023-01-05T12:28:35.579Z,99727.34
2023-01-05T12:34:57.911Z,99698.81
2023-01-05T12:37:45.928Z,99698.94
2023-01-05T12:41:09.839Z,99695.97
2023-01-05T12:44:50.878Z,99690.72
2023-01-05T12:47:57.736Z,99693.03
2023-01-05T12:50:48.506Z,99701.06
2023-01-05T12:53:32.207Z,99696.06
2023-01-05T12:56:19.684Z,99704.47
2023-01-05T12:59:04.756Z,99702.63
2023-01-05T13:01:39.422Z,99702.28
2023-01-05T13:04:34.329Z,99696.31
2023-01-05T13:07:19.670Z,99695.28
2023-01-05T13:10:02.515Z,99686.44
2023-01-05T13:12:32.892Z,99687.75
2023-01-05T13:15:21.847Z,99697.25
2023-01-05T13:17:52.069Z,99705.59
2023-01-05T13:20:41.285Z,99709.09
2023-01-05T13:23:33.650Z,99709.13
2023-01-05T13:26:14.904Z,99697.41
2023-01-05T13:28:42.940Z,99694.47
2023-01-05T13:31:38.172Z,99680.94
2023-01-05T13:34:38.018Z,99682.63
2023-01-05T13:37:30.287Z,99670.09
2023-01-05T13:40:12.838Z,99657.25
2023-01-05T13:43:04.984Z,99657.50
2023-01-05T13:46:08.749Z,99659.69
2023-01-05T13:49:15.380Z,99659.94
2023-01-05T13:52:03.200Z,99666.53
2023-01-05T13:55:00.272Z,99672.28
2023-01-05T13:57:38.546Z,99665.16
2023-01-05T14:00:27.990Z,99665.78
2023-01-05T14:03:29.776Z,99665.91
2023-01-05T14:06:01.415Z,99668.00
2023-01-05T14:08:46.648Z,99658.88
2023-01-05T14:11:22.817Z,99662.63
2023-01-05T14:14:08.635Z,99654.81
2023-01-05T14:16:37.525Z,99660.09
2023-01-05T14:19:52.823Z,99657.19
2023-01-05T14:22:20.224Z,99656.19
2023-01-05T14:24:49.072Z,99652.41
2023-01-05T14:27:24.604Z,99647.63
2023-01-05T14:29:55.506Z,99641.72
2023-01-05T14:32:41.368Z,99629.75
2023-01-05T14:35:37.171Z,99635.91
2023-01-05T14:38:18.592Z,99637.41
2023-01-05T14:40:52.890Z,99636.63
2023-01-05T14:43:40.773Z,99639.22
2023-01-05T14:46:15.453Z,99636.28
2023-01-05T14:49:07.911Z,99627.03
2023-01-05T14:51:38.763Z,99628.44
2023-01-05T14:54:50.346Z,99631.41
2023-01-05T14:57:27.181Z,99636.56
2023-01-05T15:00:27.834Z,99647.47
2023-01-05T15:03:40.531Z,99634.75
2023-01-05T15:06:19.849Z,99620.72
2023-01-05T15:09:25.526Z,99628.91
2023-01-05T15:12:15.974Z,99625.75
2023-01-05T15:15:23.828Z,99623.16
2023-01-05T15:18:23.433Z,99636.09
2023-01-05T15:21:18.429Z,99620.19
2023-01-05T15:24:27.701Z,99624.28
2023-01-05T15:27:22.486Z,99621.09
2023-01-05T15:30:34.829Z,99626.06
2023-01-05T15:33:18.487Z,99624.38
2023-01-05T15:35:54.314Z,99622.44
2023-01-05T15:38:26.340Z,99620.09
2023-01-05T15:41:10.769Z,99613.25
2023-01-05T15:43:41.605Z,99619.31
2023-01-05T15:46:12.865Z,99621.81
2023-01-05T15:48:46.649Z,99619.34
2023-01-05T15:51:25.463Z,99617.97
2023-01-05T15:54:05.604Z,99620.28
2023-01-05T15:56:41.186Z,99628.47
2023-01-05T15:59:33.003Z,99637.91
2023-01-05T16:02:00.854Z,99621.34
2023-01-05T16:04:28.495Z,99632.00
2023-01-05T16:07:04.024Z,99627.03
2023-01-05T16:09:36.074Z,99629.16
2023-01-05T16:12:23.264Z,99623.28
2023-01-05T16:15:01.777Z,99625.88
2023-01-05T16:17:34.790Z,99617.91
2023-01-05T16:20:15.546Z,99622.84
2023-01-05T16:23:04.502Z,99609.59
2023-01-05T16:25:50.981Z,99607.31
2023-01-05T16:28:23.016Z,99619.94
2023-01-05T16:30:53.983Z,99611.19
2023-01-05T16:33:36.410Z,99611.56
2023-01-05T16:36:21.123Z,99612.66
2023-01-05T16:38:49.384Z,99621.44
2023-01-05T16:41:28.065Z,99619.38
2023-01-05T16:44:01.401Z,99619.47
2023-01-05T16:46:37.313Z,99619.53
2023-01-05T16:49:28.412Z,99613.16
2023-01-05T16:52:02.761Z,99628.78
2023-01-05T16:54:45.033Z,99628.38
2023-01-05T16:58:03.466Z,99625.31
2023-01-05T17:00:36.424Z,99629.19
2023-01-05T17:03:32.289Z,99638.06
2023-01-05T17:06:01.824Z,99633.50
2023-01-05T17:08:36.349Z,99628.00
2023-01-05T17:11:08.078Z,99632.53
2023-01-05T17:13:49.231Z,99627.94
2023-01-05T17:16:18.692Z,99618.47
2023-01-05T17:18:47.589Z,99631.47
2023-01-05T17:24:14.600Z,99630.31
2023-01-05T17:26:46.637Z,99626.22
2023-01-05T17:29:28.802Z,99632.16
2023-01-05T17:31:57.340Z,99631.84
2023-01-05T17:34:25.662Z,99618.19
2023-01-05T17:36:57.774Z,99619.44
2023-01-05T17:39:29.120Z,99623.34
2023-01-05T17:42:18.427Z,99613.59
2023-01-05T17:44:52.177Z,99618.25
2023-01-05T17:47:20.902Z,99625.72
2023-01-05T17:49:48.567Z,99637.28
2023-01-05T17:52:16.095Z,99639.63
2023-01-05T17:54:44.646Z,99639.03
2023-01-05T17:57:19.092Z,99636.13
2023-01-05T17:59:47.303Z,99632.47
2023-01-05T18:02:16.466Z,99627.63
2023-01-05T18:04:44.009Z,99623.94
2023-01-05T18:07:12.230Z,99621.25
2023-01-05T18:09:40.359Z,99629.16
2023-01-05T18:12:11.828Z,99618.50
2023-01-05T18:14:40.003Z,99626.06
2023-01-05T18:17:08.691Z,99624.66
2023-01-05T18:19:37.555Z,99614.31
2023-01-05T18:22:07.235Z,99623.19
2023-01-05T18:24:35.613Z,99625.22
2023-01-05T18:27:07.038Z,99624.81
2023-01-05T18:29:37.249Z,99628.19
2023-01-05T18:32:06.935Z,99615.84
2023-01-05T18:34:34.811Z,99619.13
2023-01-05T18:37:06.338Z,99623.22
2023-01-05T18:39:39.195Z,99630.16
2023-01-05T18:42:07.214Z,99634.13
2023-01-05T18:44:35.632Z,99630.97
2023-01-05T18:47:03.193Z,99623.59
2023-01-05T18:49:31.910Z,99624.69
2023-01-05T18:52:00.065Z,99623.50
2023-01-05T18:54:28.249Z,99620.97
2023-01-05T18:56:56.982Z,99617.53
2023-01-05T18:59:25.128Z,99607.78
2023-01-05T19:01:52.789Z,99609.81
2023-01-05T19:04:20.922Z,99608.03
2023-01-05T19:06:48.506Z,99616.44
2023-01-05T19:09:16.197Z,99617.56
2023-01-05T19:11:49.219Z,99619.75
2023-01-05T19:14:25.142Z,99625.53
2023-01-05T19:16:54.690Z,99632.22
2023-01-05T19:19:23.097Z,99630.56
2023-01-05T19:22:11.385Z,99628.13
2023-01-05T19:24:43.513Z,99630.00
2023-01-05T19:27:11.187Z,99622.13
2023-01-05T19:29:42.205Z,99618.19
2023-01-05T19:32:12.608Z,99623.78
2023-01-05T19:34:44.588Z,99629.56
2023-01-05T19:37:16.228Z,99638.84
2023-01-05T19:39:49.231Z,99646.69
2023-01-05T19:42:39.430Z,99648.59
2023-01-05T19:45:22.736Z,99634.34
2023-01-05T19:47:50.365Z,99633.25
2023-01-05T19:50:19.107Z,99623.03
2023-01-05T19:52:46.643Z,99622.69
2023-01-05T19:55:19.503Z,99629.44
2023-01-05T19:57:53.453Z,99632.00
2023-01-05T20:00:21.529Z,99637.16
2023-01-05T20:02:49.107Z,99638.38
2023-01-05T20:05:17.471Z,99648.66
2023-01-05T20:07:50.020Z,99644.41
2023-01-05T20:10:23.635Z,99656.25
2023-01-05T20:12:53.976Z,99651.88
2023-01-05T20:15:25.573Z,99650.91
2023-01-05T20:17:53.631Z,99645.63
2023-01-05T20:20:23.949Z,99633.59
2023-01-05T20:22:54.498Z,99626.41
2023-01-05T20:25:26.071Z,99629.00
2023-01-05T20:27:58.754Z,99638.44
2023-01-05T20:30:29.392Z,99652.38
2023-01-05T20:32:58.369Z,99656.00
2023-01-05T20:35:29.417Z,99638.91
2023-01-05T20:38:01.418Z,99638.91
2023-01-05T20:40:31.117Z,99643.66
2023-01-05T20:43:00.457Z,99654.91
2023-01-05T20:45:30.786Z,99656.22
2023-01-05T20:48:00.078Z,99659.25
2023-01-05T20:50:32.135Z,99662.72
2023-01-05T20:53:01.063Z,99655.97
2023-01-05T20:55:28.633Z,99648.75
2023-01-05T20:57:58.575Z,99658.25
2023-01-05T21:00:26.423Z,99649.38
2023-01-05T21:02:56.591Z,99647.94
2023-01-05T21:05:28.985Z,99644.34
2023-01-05T21:07:56.641Z,99655.91
2023-01-05T21:10:25.040Z,99648.78
2023-01-05T21:12:54.947Z,99656.78
2023-01-05T21:15:56.174Z,99660.09
2023-01-05T21:18:25.206Z,99667.09
2023-01-05T21:20:55.877Z,99666.53
2023-01-05T21:23:48.468Z,99665.00
2023-01-05T21:26:19.503Z,99672.50
2023-01-05T21:28:56.943Z,99672.34
2023-01-05T21:31:32.158Z,99675.53
2023-01-05T21:34:01.940Z,99665.09
2023-01-05T21:36:35.028Z,99665.88
2023-01-05T21:39:09.289Z,99659.34
2023-01-05T21:41:57.600Z,99673.66
2023-01-05T21:44:26.356Z,99671.84
2023-01-05T21:46:54.285Z,99684.16
2023-01-05T21:49:24.259Z,99683.22
2023-01-05T21:52:10.307Z,99679.50
2023-01-05T21:54:57.906Z,99678.25
2023-01-05T21:57:27.083Z,99684.72
2023-01-05T21:59:55.832Z,99689.50
2023-01-05T22:02:23.315Z,99690.19
2023-01-05T22:04:50.937Z,99691.28
2023-01-05T22:07:18.381Z,99686.56
2023-01-05T22:09:46.126Z,99692.06
2023-01-05T22:12:13.591Z,99683.78
2023-01-05T22:14:41.177Z,99680.47
2023-01-05T22:17:10.248Z,99680.53
2023-01-05T22:19:38.433Z,99680.94
2023-01-05T22:22:05.962Z,99686.13
2023-01-05T22:24:33.648Z,99685.34
2023-01-05T22:27:01.178Z,99685.44
2023-01-05T22:29:28.747Z,99686.56
2023-01-05T22:32:00.540Z,99687.38
2023-01-05T22:34:29.636Z,99690.78
2023-01-05T22:36:57.278Z,99692.28
2023-01-05T22:39:24.921Z,99673.19
2023-01-05T22:41:52.457Z,99679.56
2023-01-05T22:44:20.080Z,99684.81
2023-01-05T22:46:47.543Z,99689.91
2023-01-05T22:49:16.639Z,99690.94
2023-01-05T22:51:46.246Z,99696.41
2023-01-05T22:54:14.198Z,99693.06
2023-01-05T22:56:41.701Z,99687.81
2023-01-05T22:59:09.286Z,99696.81
2023-01-05T23:01:43.245Z,99697.84
2023-01-05T23:04:15.033Z,99698.94
2023-01-05T23:06:43.692Z,99708.16
2023-01-05T23:09:15.209Z,99704.50
2023-01-05T23:11:46.154Z,99712.13
2023-01-05T23:14:14.988Z,99709.59
2023-01-05T23:16:42.589Z,99702.66
2023-01-05T23:19:10.336Z,99698.31
2023-01-05T23:21:37.915Z,99708.72
2023-01-05T23:24:06.098Z,99723.28
2023-01-05T23:26:33.680Z,99723.16
2023-01-05T23:29:01.270Z,99720.19
2023-01-05T23:31:29.115Z,99720.50
2023-01-05T23:33:58.085Z,99717.47
2023-01-05T23:36:25.834Z,99717.22
2023-01-05T23:38:53.461Z,99720.69
2023-01-05T23:41:20.968Z,99724.22
2023-01-05T23:43:48.568Z,99727.19
2023-01-05T23:46:23.702Z,99731.94
2023-01-05T23:48:52.611Z,99726.34
2023-01-05T23:51:21.290Z,99730.31
2023-01-05T23:53:52.211Z,99734.94
2023-01-05T23:56:29.683Z,99737.53
2023-01-05T23:59:06.836Z,99746.94
